sensor_id;sensor_type;location;lat;lon;timestamp;P1;durP1;ratioP1;P2;durP2;ratioP2
3767;SDS011;1899;49.966;7.106;2022-12-15T05:02:35;22.30;;;15.57;;
3767;SDS011;1899;49.966;7.106;2022-12-15T05:05:19;23.08;;;16.35;;
3767;SDS011;1899;49.966;7.106;2022-12-15T05:08:03;23.35;;;16.38;;
3767;SDS011;1899;49.966;7.106;2022-12-15T05:10:47;24.10;;;16.30;;
3767;SDS011;1899;49.966;7.106;2022-12-15T05:13:31;27.02;;;17.63;;
3767;SDS011;1899;49.966;7.106;2022-12-15T05:16:15;26.05;;;17.73;;
3767;SDS011;1899;49.966;7.106;2022-12-15T05:18:59;24.05;;;16.02;;
3767;SDS011;1899;49.966;7.106;2022-12-15T05:21:43;23.58;;;16.77;;
3767;SDS011;1899;49.966;7.106;2022-12-15T05:24:27;24.50;;;17.30;;
3767;SDS011;1899;49.966;7.106;2022-12-15T05:27:11;22.55;;;15.43;;
3767;SDS011;1899;49.966;7.106;2022-12-15T05:29:55;24.30;;;17.23;;
3767;SDS011;1899;49.966;7.106;2022-12-15T05:32:38;25.52;;;17.83;;
3767;SDS011;1899;49.966;7.106;2022-12-15T05:35:04;23.33;;;16.37;;
3767;SDS011;1899;49.966;7.106;2022-12-15T05:37:29;24.67;;;16.63;;
3767;SDS011;1899;49.966;7.106;2022-12-15T05:39:54;27.10;;;18.63;;
3767;SDS011;1899;49.966;7.106;2022-12-15T05:42:20;26.60;;;18.53;;
3767;SDS011;1899;49.966;7.106;2022-12-15T05:44:45;25.43;;;17.47;;
3767;SDS011;1899;49.966;7.106;2022-12-15T05:47:10;26.90;;;17.17;;
3767;SDS011;1899;49.966;7.106;2022-12-15T05:49:35;29.00;;;18.60;;
3767;SDS011;1899;49.966;7.106;2022-12-15T05:52:01;29.70;;;18.60;;
3767;SDS011;1899;49.966;7.106;2022-12-15T05:54:26;26.23;;;17.17;;
3767;SDS011;1899;49.966;7.106;2022-12-15T05:56:51;26.70;;;18.70;;
3767;SDS011;1899;49.966;7.106;2022-12-15T05:59:17;25.50;;;17.67;;
3767;SDS011;1899;49.966;7.106;2022-12-15T06:01:43;27.63;;;19.65;;
3767;SDS011;1899;49.966;7.106;2022-12-15T06:04:08;27.92;;;19.30;;
3767;SDS011;1899;49.966;7.106;2022-12-15T06:06:34;27.40;;;18.20;;
3767;SDS011;1899;49.966;7.106;2022-12-15T06:08:59;27.93;;;18.30;;
3767;SDS011;1899;49.966;7.106;2022-12-15T06:11:24;26.50;;;18.80;;
3767;SDS011;1899;49.966;7.106;2022-12-15T06:13:50;28.65;;;19.50;;
3767;SDS011;1899;49.966;7.106;2022-12-15T06:16:16;29.70;;;18.95;;
3767;SDS011;1899;49.966;7.106;2022-12-15T06:18:43;26.85;;;17.55;;
3767;SDS011;1899;49.966;7.106;2022-12-15T06:21:10;24.65;;;17.10;;
3767;SDS011;1899;49.966;7.106;2022-12-15T06:23:36;23.30;;;17.30;;
3767;SDS011;1899;49.966;7.106;2022-12-15T06:28:33;33.65;;;20.27;;
3767;SDS011;1899;49.966;7.106;2022-12-15T06:31:00;27.97;;;19.10;;
3767;SDS011;1899;49.966;7.106;2022-12-15T06:33:27;29.67;;;19.30;;
3767;SDS011;1899;49.966;7.106;2022-12-15T06:35:52;28.02;;;19.25;;
3767;SDS011;1899;49.966;7.106;2022-12-15T06:38:17;26.47;;;18.60;;
3767;SDS011;1899;49.966;7.106;2022-12-15T06:40:44;27.88;;;19.45;;
3767;SDS011;1899;49.966;7.106;2022-12-15T06:43:09;30.87;;;20.10;;
3767;SDS011;1899;49.966;7.106;2022-12-15T06:45:34;26.60;;;17.30;;
3767;SDS011;1899;49.966;7.106;2022-12-15T06:47:59;28.73;;;18.73;;
3767;SDS011;1899;49.966;7.106;2022-12-15T06:50:25;27.13;;;19.47;;
3767;SDS011;1899;49.966;7.106;2022-12-15T06:52:50;27.67;;;18.77;;
3767;SDS011;1899;49.966;7.106;2022-12-15T06:55:15;26.10;;;17.50;;
3767;SDS011;1899;49.966;7.106;2022-12-15T06:57:41;28.83;;;18.50;;
3767;SDS011;1899;49.966;7.106;2022-12-15T07:00:06;28.20;;;19.20;;
3767;SDS011;1899;49.966;7.106;2022-12-15T07:02:32;29.98;;;20.60;;
3767;SDS011;1899;49.966;7.106;2022-12-15T07:04:57;28.50;;;19.37;;
3767;SDS011;1899;49.966;7.106;2022-12-15T07:07:22;29.10;;;19.70;;
3767;SDS011;1899;49.966;7.106;2022-12-15T07:09:48;27.50;;;19.47;;
3767;SDS011;1899;49.966;7.106;2022-12-15T07:12:13;30.17;;;19.60;;
3767;SDS011;1899;49.966;7.106;2022-12-15T07:14:38;28.60;;;18.87;;
3767;SDS011;1899;49.966;7.106;2022-12-15T07:17:03;26.43;;;19.10;;
3767;SDS011;1899;49.966;7.106;2022-12-15T07:19:29;26.60;;;19.00;;
3767;SDS011;1899;49.966;7.106;2022-12-15T07:21:54;26.80;;;19.70;;
3767;SDS011;1899;49.966;7.106;2022-12-15T07:24:21;26.77;;;18.52;;
3767;SDS011;1899;49.966;7.106;2022-12-15T07:26:46;26.37;;;17.97;;
3767;SDS011;1899;49.966;7.106;2022-12-15T07:29:12;26.07;;;18.50;;
3767;SDS011;1899;49.966;7.106;2022-12-15T07:31:37;28.80;;;18.83;;
3767;SDS011;1899;49.966;7.106;2022-12-15T07:34:02;28.80;;;19.27;;
3767;SDS011;1899;49.966;7.106;2022-12-15T07:36:27;29.97;;;18.90;;
3767;SDS011;1899;49.966;7.106;2022-12-15T07:38:56;26.90;;;18.87;;
3767;SDS011;1899;49.966;7.106;2022-12-15T07:41:21;28.80;;;18.75;;
3767;SDS011;1899;49.966;7.106;2022-12-15T07:43:47;29.83;;;19.30;;
3767;SDS011;1899;49.966;7.106;2022-12-15T07:46:12;27.47;;;18.90;;
3767;SDS011;1899;49.966;7.106;2022-12-15T07:48:37;28.58;;;19.45;;
3767;SDS011;1899;49.966;7.106;2022-12-15T07:51:06;29.35;;;19.73;;
3767;SDS011;1899;49.966;7.106;2022-12-15T07:53:31;26.15;;;18.77;;
3767;SDS011;1899;49.966;7.106;2022-12-15T07:55:57;29.27;;;19.30;;
3767;SDS011;1899;49.966;7.106;2022-12-15T07:58:23;26.52;;;18.73;;
3767;SDS011;1899;49.966;7.106;2022-12-15T08:00:49;29.45;;;19.40;;
3767;SDS011;1899;49.966;7.106;2022-12-15T08:03:14;30.47;;;18.80;;
3767;SDS011;1899;49.966;7.106;2022-12-15T08:05:39;30.97;;;19.43;;
3767;SDS011;1899;49.966;7.106;2022-12-15T08:08:04;30.00;;;19.50;;
3767;SDS011;1899;49.966;7.106;2022-12-15T08:10:29;25.05;;;17.80;;
3767;SDS011;1899;49.966;7.106;2022-12-15T08:12:55;26.38;;;19.02;;
3767;SDS011;1899;49.966;7.106;2022-12-15T08:15:20;29.08;;;18.80;;
3767;SDS011;1899;49.966;7.106;2022-12-15T08:17:45;30.58;;;19.92;;
3767;SDS011;1899;49.966;7.106;2022-12-15T08:20:11;28.88;;;18.83;;
3767;SDS011;1899;49.966;7.106;2022-12-15T08:22:36;30.50;;;19.70;;
3767;SDS011;1899;49.966;7.106;2022-12-15T08:25:02;28.02;;;18.50;;
3767;SDS011;1899;49.966;7.106;2022-12-15T08:27:27;29.93;;;20.60;;
3767;SDS011;1899;49.966;7.106;2022-12-15T08:29:52;33.47;;;20.63;;
3767;SDS011;1899;49.966;7.106;2022-12-15T08:32:18;31.48;;;21.17;;
3767;SDS011;1899;49.966;7.106;2022-12-15T08:34:44;31.33;;;19.73;;
3767;SDS011;1899;49.966;7.106;2022-12-15T08:37:11;37.22;;;21.65;;
3767;SDS011;1899;49.966;7.106;2022-12-15T08:39:36;37.93;;;24.07;;
3767;SDS011;1899;49.966;7.106;2022-12-15T08:42:01;36.03;;;22.55;;
3767;SDS011;1899;49.966;7.106;2022-12-15T08:44:27;38.13;;;21.75;;
3767;SDS011;1899;49.966;7.106;2022-12-15T08:46:52;40.70;;;24.77;;
3767;SDS011;1899;49.966;7.106;2022-12-15T08:49:17;37.40;;;22.45;;
3767;SDS011;1899;49.966;7.106;2022-12-15T08:51:42;40.10;;;22.77;;
3767;SDS011;1899;49.966;7.106;2022-12-15T08:54:08;38.08;;;22.67;;
3767;SDS011;1899;49.966;7.106;2022-12-15T08:56:34;37.67;;;22.90;;
3767;SDS011;1899;49.966;7.106;2022-12-15T08:58:59;37.65;;;23.33;;
3767;SDS011;1899;49.966;7.106;2022-12-15T09:01:27;35.13;;;21.73;;
3767;SDS011;1899;49.966;7.106;2022-12-15T09:03:53;38.30;;;22.63;;
3767;SDS011;1899;49.966;7.106;2022-12-15T09:06:22;31.75;;;20.23;;
3767;SDS011;1899;49.966;7.106;2022-12-15T09:08:48;33.22;;;20.50;;
3767;SDS011;1899;49.966;7.106;2022-12-15T09:11:13;32.60;;;20.60;;
3767;SDS011;1899;49.966;7.106;2022-12-15T09:13:39;37.53;;;22.53;;
3767;SDS011;1899;49.966;7.106;2022-12-15T09:16:05;35.70;;;22.80;;
3767;SDS011;1899;49.966;7.106;2022-12-15T09:18:31;33.35;;;21.35;;
3767;SDS011;1899;49.966;7.106;2022-12-15T09:21:01;35.95;;;21.80;;
3767;SDS011;1899;49.966;7.106;2022-12-15T09:23:29;30.52;;;20.13;;
3767;SDS011;1899;49.966;7.106;2022-12-15T09:25:59;32.27;;;21.20;;
3767;SDS011;1899;49.966;7.106;2022-12-15T09:28:24;29.80;;;20.45;;
3767;SDS011;1899;49.966;7.106;2022-12-15T09:30:50;32.33;;;20.87;;
3767;SDS011;1899;49.966;7.106;2022-12-15T09:33:15;31.30;;;21.33;;
3767;SDS011;1899;49.966;7.106;2022-12-15T09:35:40;32.53;;;21.20;;
3767;SDS011;1899;49.966;7.106;2022-12-15T09:38:05;32.10;;;21.17;;
3767;SDS011;1899;49.966;7.106;2022-12-15T09:40:31;33.33;;;21.97;;
3767;SDS011;1899;49.966;7.106;2022-12-15T09:42:57;32.13;;;20.70;;
3767;SDS011;1899;49.966;7.106;2022-12-15T09:45:26;33.83;;;20.80;;
3767;SDS011;1899;49.966;7.106;2022-12-15T09:48:02;30.98;;;19.77;;
3767;SDS011;1899;49.966;7.106;2022-12-15T09:50:32;32.70;;;21.17;;
3767;SDS011;1899;49.966;7.106;2022-12-15T09:52:58;33.65;;;20.33;;
3767;SDS011;1899;49.966;7.106;2022-12-15T09:55:25;34.92;;;22.00;;
3767;SDS011;1899;49.966;7.106;2022-12-15T10:03:33;33.22;;;21.73;;
3767;SDS011;1899;49.966;7.106;2022-12-15T10:08:22;34.67;;;22.33;;
3767;SDS011;1899;49.966;7.106;2022-12-15T10:16:04;33.45;;;20.42;;
3767;SDS011;1899;49.966;7.106;2022-12-15T10:18:38;35.33;;;21.52;;
3767;SDS011;1899;49.966;7.106;2022-12-15T10:21:05;35.08;;;22.30;;
3767;SDS011;1899;49.966;7.106;2022-12-15T10:23:38;33.65;;;20.73;;
3767;SDS011;1899;49.966;7.106;2022-12-15T10:31:15;35.03;;;21.25;;
3767;SDS011;1899;49.966;7.106;2022-12-15T10:33:42;36.22;;;22.27;;
3767;SDS011;1899;49.966;7.106;2022-12-15T10:36:10;31.85;;;20.88;;
3767;SDS011;1899;49.966;7.106;2022-12-15T10:38:36;37.33;;;23.40;;
3767;SDS011;1899;49.966;7.106;2022-12-15T10:41:06;37.22;;;22.65;;
3767;SDS011;1899;49.966;7.106;2022-12-15T10:48:35;35.92;;;21.40;;
3767;SDS011;1899;49.966;7.106;2022-12-15T10:51:34;36.58;;;21.98;;
3767;SDS011;1899;49.966;7.106;2022-12-15T10:54:02;38.05;;;22.55;;
3767;SDS011;1899;49.966;7.106;2022-12-15T10:56:28;36.85;;;23.77;;
3767;SDS011;1899;49.966;7.106;2022-12-15T10:58:55;33.17;;;21.52;;
3767;SDS011;1899;49.966;7.106;2022-12-15T11:01:28;35.70;;;21.17;;
3767;SDS011;1899;49.966;7.106;2022-12-15T11:03:54;33.17;;;21.30;;
3767;SDS011;1899;49.966;7.106;2022-12-15T11:08:45;35.57;;;21.27;;
3767;SDS011;1899;49.966;7.106;2022-12-15T11:11:25;35.08;;;22.02;;
3767;SDS011;1899;49.966;7.106;2022-12-15T11:14:11;34.30;;;21.35;;
3767;SDS011;1899;49.966;7.106;2022-12-15T11:16:48;33.97;;;21.88;;
3767;SDS011;1899;49.966;7.106;2022-12-15T11:19:16;31.88;;;20.02;;
3767;SDS011;1899;49.966;7.106;2022-12-15T11:21:45;34.22;;;20.92;;
3767;SDS011;1899;49.966;7.106;2022-12-15T11:31:47;31.17;;;20.08;;
3767;SDS011;1899;49.966;7.106;2022-12-15T11:34:13;30.73;;;19.02;;
3767;SDS011;1899;49.966;7.106;2022-12-15T11:39:22;33.53;;;21.33;;
3767;SDS011;1899;49.966;7.106;2022-12-15T11:44:29;28.10;;;19.20;;
3767;SDS011;1899;49.966;7.106;2022-12-15T11:47:12;31.30;;;19.60;;
3767;SDS011;1899;49.966;7.106;2022-12-15T11:54:52;30.90;;;20.30;;
3767;SDS011;1899;49.966;7.106;2022-12-15T11:57:42;32.90;;;20.35;;
3767;SDS011;1899;49.966;7.106;2022-12-15T12:00:11;29.45;;;18.50;;
3767;SDS011;1899;49.966;7.106;2022-12-15T12:07:34;30.00;;;19.00;;
3767;SDS011;1899;49.966;7.106;2022-12-15T12:18:00;31.90;;;20.50;;
3767;SDS011;1899;49.966;7.106;2022-12-15T12:23:16;33.47;;;20.40;;
3767;SDS011;1899;49.966;7.106;2022-12-15T12:25:45;32.83;;;21.40;;
3767;SDS011;1899;49.966;7.106;2022-12-15T12:28:15;32.60;;;20.85;;
3767;SDS011;1899;49.966;7.106;2022-12-15T12:30:46;34.13;;;21.00;;
3767;SDS011;1899;49.966;7.106;2022-12-15T12:35:49;29.00;;;19.90;;
3767;SDS011;1899;49.966;7.106;2022-12-15T12:38:15;31.55;;;20.20;;
3767;SDS011;1899;49.966;7.106;2022-12-15T12:43:31;31.60;;;20.17;;
3767;SDS011;1899;49.966;7.106;2022-12-15T12:46:16;28.10;;;17.73;;
3767;SDS011;1899;49.966;7.106;2022-12-15T12:53:42;25.88;;;17.55;;
3767;SDS011;1899;49.966;7.106;2022-12-15T12:58:52;25.30;;;17.90;;
3767;SDS011;1899;49.966;7.106;2022-12-15T13:03:42;26.13;;;19.17;;
3767;SDS011;1899;49.966;7.106;2022-12-15T13:06:25;26.27;;;18.37;;
3767;SDS011;1899;49.966;7.106;2022-12-15T13:14:24;25.77;;;18.98;;
3767;SDS011;1899;49.966;7.106;2022-12-15T13:16:55;28.33;;;19.48;;
3767;SDS011;1899;49.966;7.106;2022-12-15T13:22:20;26.95;;;19.50;;
3767;SDS011;1899;49.966;7.106;2022-12-15T13:24:46;29.30;;;18.90;;
3767;SDS011;1899;49.966;7.106;2022-12-15T13:27:12;25.45;;;18.67;;
3767;SDS011;1899;49.966;7.106;2022-12-15T13:34:51;24.33;;;17.70;;
3767;SDS011;1899;49.966;7.106;2022-12-15T13:40:00;24.98;;;17.90;;
3767;SDS011;1899;49.966;7.106;2022-12-15T13:42:26;26.52;;;17.63;;
3767;SDS011;1899;49.966;7.106;2022-12-15T13:44:51;27.60;;;19.17;;
3767;SDS011;1899;49.966;7.106;2022-12-15T13:47:22;24.90;;;17.50;;
3767;SDS011;1899;49.966;7.106;2022-12-15T13:49:54;26.25;;;18.33;;
3767;SDS011;1899;49.966;7.106;2022-12-15T13:52:34;27.67;;;19.13;;
3767;SDS011;1899;49.966;7.106;2022-12-15T13:55:03;32.08;;;20.92;;
3767;SDS011;1899;49.966;7.106;2022-12-15T13:57:30;32.65;;;20.08;;
3767;SDS011;1899;49.966;7.106;2022-12-15T14:00:01;31.20;;;20.90;;
3767;SDS011;1899;49.966;7.106;2022-12-15T14:02:30;35.10;;;22.45;;
3767;SDS011;1899;49.966;7.106;2022-12-15T14:07:36;32.83;;;20.95;;
3767;SDS011;1899;49.966;7.106;2022-12-15T14:10:03;30.45;;;20.63;;
3767;SDS011;1899;49.966;7.106;2022-12-15T14:12:28;29.92;;;20.67;;
3767;SDS011;1899;49.966;7.106;2022-12-15T14:14:53;34.15;;;21.25;;
3767;SDS011;1899;49.966;7.106;2022-12-15T14:17:19;34.75;;;21.48;;
3767;SDS011;1899;49.966;7.106;2022-12-15T14:19:45;33.47;;;20.60;;
3767;SDS011;1899;49.966;7.106;2022-12-15T14:24:48;35.22;;;20.38;;
3767;SDS011;1899;49.966;7.106;2022-12-15T14:27:24;36.73;;;21.93;;
3767;SDS011;1899;49.966;7.106;2022-12-15T14:29:49;37.30;;;22.40;;
3767;SDS011;1899;49.966;7.106;2022-12-15T14:32:32;35.55;;;22.90;;
3767;SDS011;1899;49.966;7.106;2022-12-15T14:34:57;38.47;;;24.17;;
3767;SDS011;1899;49.966;7.106;2022-12-15T14:37:22;39.07;;;22.97;;
3767;SDS011;1899;49.966;7.106;2022-12-15T14:39:48;36.25;;;22.83;;
3767;SDS011;1899;49.966;7.106;2022-12-15T14:42:14;41.53;;;23.67;;
3767;SDS011;1899;49.966;7.106;2022-12-15T14:44:42;37.20;;;23.07;;
3767;SDS011;1899;49.966;7.106;2022-12-15T14:47:15;37.88;;;21.95;;
3767;SDS011;1899;49.966;7.106;2022-12-15T14:49:42;40.97;;;23.90;;
3767;SDS011;1899;49.966;7.106;2022-12-15T14:52:22;36.42;;;21.83;;
3767;SDS011;1899;49.966;7.106;2022-12-15T14:54:50;38.70;;;23.13;;
3767;SDS011;1899;49.966;7.106;2022-12-15T14:57:21;37.95;;;22.30;;
3767;SDS011;1899;49.966;7.106;2022-12-15T14:59:47;39.25;;;23.77;;
3767;SDS011;1899;49.966;7.106;2022-12-15T15:04:38;41.33;;;24.33;;
3767;SDS011;1899;49.966;7.106;2022-12-15T15:07:04;41.97;;;24.13;;
3767;SDS011;1899;49.966;7.106;2022-12-15T15:09:39;39.40;;;22.98;;
3767;SDS011;1899;49.966;7.106;2022-12-15T15:12:05;42.25;;;23.80;;
3767;SDS011;1899;49.966;7.106;2022-12-15T15:14:41;38.30;;;23.27;;
3767;SDS011;1899;49.966;7.106;2022-12-15T15:22:22;44.22;;;24.00;;
3767;SDS011;1899;49.966;7.106;2022-12-15T15:24:51;37.92;;;23.02;;
3767;SDS011;1899;49.966;7.106;2022-12-15T15:27:30;37.00;;;23.08;;
3767;SDS011;1899;49.966;7.106;2022-12-15T15:30:11;39.30;;;23.25;;
3767;SDS011;1899;49.966;7.106;2022-12-15T15:32:47;42.00;;;24.33;;
3767;SDS011;1899;49.966;7.106;2022-12-15T15:35:13;41.60;;;24.47;;
3767;SDS011;1899;49.966;7.106;2022-12-15T15:37:38;40.95;;;23.85;;
3767;SDS011;1899;49.966;7.106;2022-12-15T15:40:05;39.20;;;22.97;;
3767;SDS011;1899;49.966;7.106;2022-12-15T15:42:34;47.15;;;25.13;;
3767;SDS011;1899;49.966;7.106;2022-12-15T15:44:59;45.73;;;24.30;;
3767;SDS011;1899;49.966;7.106;2022-12-15T15:47:25;47.10;;;25.00;;
3767;SDS011;1899;49.966;7.106;2022-12-15T15:49:54;43.13;;;25.15;;
3767;SDS011;1899;49.966;7.106;2022-12-15T15:52:22;46.65;;;26.55;;
3767;SDS011;1899;49.966;7.106;2022-12-15T15:54:47;41.92;;;25.35;;
3767;SDS011;1899;49.966;7.106;2022-12-15T15:57:13;42.00;;;24.40;;
3767;SDS011;1899;49.966;7.106;2022-12-15T15:59:39;43.67;;;25.10;;
3767;SDS011;1899;49.966;7.106;2022-12-15T16:02:07;44.97;;;25.13;;
3767;SDS011;1899;49.966;7.106;2022-12-15T16:04:32;42.60;;;24.02;;
3767;SDS011;1899;49.966;7.106;2022-12-15T16:07:00;43.83;;;23.95;;
3767;SDS011;1899;49.966;7.106;2022-12-15T16:09:25;41.07;;;23.53;;
3767;SDS011;1899;49.966;7.106;2022-12-15T16:11:51;45.73;;;24.93;;
3767;SDS011;1899;49.966;7.106;2022-12-15T16:14:16;41.87;;;24.50;;
3767;SDS011;1899;49.966;7.106;2022-12-15T16:16:42;44.17;;;24.55;;
3767;SDS011;1899;49.966;7.106;2022-12-15T16:19:07;42.80;;;24.50;;
3767;SDS011;1899;49.966;7.106;2022-12-15T16:21:32;37.77;;;23.27;;
3767;SDS011;1899;49.966;7.106;2022-12-15T16:23:59;47.10;;;25.30;;
3767;SDS011;1899;49.966;7.106;2022-12-15T16:26:30;45.10;;;26.48;;
3767;SDS011;1899;49.966;7.106;2022-12-15T16:28:56;47.20;;;25.50;;
3767;SDS011;1899;49.966;7.106;2022-12-15T16:31:32;45.57;;;24.53;;
3767;SDS011;1899;49.966;7.106;2022-12-15T16:34:00;45.00;;;25.33;;
3767;SDS011;1899;49.966;7.106;2022-12-15T16:36:25;46.00;;;26.07;;
3767;SDS011;1899;49.966;7.106;2022-12-15T16:38:50;42.33;;;24.40;;
3767;SDS011;1899;49.966;7.106;2022-12-15T16:41:16;41.77;;;25.70;;
3767;SDS011;1899;49.966;7.106;2022-12-15T16:43:41;42.33;;;24.35;;
3767;SDS011;1899;49.966;7.106;2022-12-15T16:46:10;41.30;;;23.90;;
3767;SDS011;1899;49.966;7.106;2022-12-15T16:48:35;42.25;;;24.70;;
3767;SDS011;1899;49.966;7.106;2022-12-15T16:51:01;44.90;;;25.67;;
3767;SDS011;1899;49.966;7.106;2022-12-15T16:53:30;43.35;;;24.17;;
3767;SDS011;1899;49.966;7.106;2022-12-15T16:55:57;40.97;;;24.60;;
3767;SDS011;1899;49.966;7.106;2022-12-15T16:58:22;41.95;;;24.10;;
3767;SDS011;1899;49.966;7.106;2022-12-15T17:00:49;43.55;;;25.13;;
3767;SDS011;1899;49.966;7.106;2022-12-15T17:03:15;43.13;;;25.13;;
3767;SDS011;1899;49.966;7.106;2022-12-15T17:05:41;41.03;;;24.00;;
3767;SDS011;1899;49.966;7.106;2022-12-15T17:08:09;42.28;;;25.27;;
3767;SDS011;1899;49.966;7.106;2022-12-15T17:10:39;42.00;;;24.17;;
3767;SDS011;1899;49.966;7.106;2022-12-15T17:13:20;48.13;;;25.87;;
3767;SDS011;1899;49.966;7.106;2022-12-15T17:15:49;42.47;;;25.17;;
3767;SDS011;1899;49.966;7.106;2022-12-15T17:18:14;44.53;;;25.03;;
3767;SDS011;1899;49.966;7.106;2022-12-15T17:20:39;41.58;;;24.33;;
3767;SDS011;1899;49.966;7.106;2022-12-15T17:23:06;41.22;;;23.80;;
3767;SDS011;1899;49.966;7.106;2022-12-15T17:25:42;43.83;;;24.65;;
3767;SDS011;1899;49.966;7.106;2022-12-15T17:28:28;40.35;;;23.42;;
3767;SDS011;1899;49.966;7.106;2022-12-15T17:30:55;41.72;;;24.50;;
3767;SDS011;1899;49.966;7.106;2022-12-15T17:33:28;42.25;;;24.40;;
3767;SDS011;1899;49.966;7.106;2022-12-15T17:35:54;41.28;;;24.17;;
3767;SDS011;1899;49.966;7.106;2022-12-15T17:38:20;40.20;;;23.30;;
3767;SDS011;1899;49.966;7.106;2022-12-15T17:40:46;38.95;;;23.20;;
3767;SDS011;1899;49.966;7.106;2022-12-15T17:43:12;42.53;;;23.40;;
3767;SDS011;1899;49.966;7.106;2022-12-15T17:45:38;39.53;;;23.95;;
3767;SDS011;1899;49.966;7.106;2022-12-15T17:48:03;41.00;;;23.87;;
3767;SDS011;1899;49.966;7.106;2022-12-15T17:50:29;38.73;;;23.80;;
3767;SDS011;1899;49.966;7.106;2022-12-15T17:52:56;41.45;;;24.02;;
3767;SDS011;1899;49.966;7.106;2022-12-15T17:55:23;41.53;;;24.50;;
3767;SDS011;1899;49.966;7.106;2022-12-15T17:57:48;42.50;;;24.05;;
3767;SDS011;1899;49.966;7.106;2022-12-15T18:00:15;40.77;;;23.17;;
3767;SDS011;1899;49.966;7.106;2022-12-15T18:02:41;38.88;;;22.92;;
3767;SDS011;1899;49.966;7.106;2022-12-15T18:05:06;44.47;;;25.43;;
3767;SDS011;1899;49.966;7.106;2022-12-15T18:07:31;38.50;;;23.00;;
3767;SDS011;1899;49.966;7.106;2022-12-15T18:09:57;40.27;;;23.70;;
3767;SDS011;1899;49.966;7.106;2022-12-15T18:12:23;41.10;;;23.00;;
3767;SDS011;1899;49.966;7.106;2022-12-15T18:14:49;37.95;;;22.38;;
3767;SDS011;1899;49.966;7.106;2022-12-15T18:17:14;36.50;;;22.00;;
3767;SDS011;1899;49.966;7.106;2022-12-15T18:19:39;37.87;;;22.70;;
3767;SDS011;1899;49.966;7.106;2022-12-15T18:22:09;36.53;;;22.50;;
3767;SDS011;1899;49.966;7.106;2022-12-15T18:24:35;38.90;;;22.20;;
3767;SDS011;1899;49.966;7.106;2022-12-15T18:27:00;40.03;;;22.60;;
3767;SDS011;1899;49.966;7.106;2022-12-15T18:29:25;38.10;;;22.43;;
3767;SDS011;1899;49.966;7.106;2022-12-15T18:31:50;38.13;;;22.03;;
3767;SDS011;1899;49.966;7.106;2022-12-15T18:34:16;37.83;;;21.80;;
3767;SDS011;1899;49.966;7.106;2022-12-15T18:36:43;38.95;;;23.20;;
3767;SDS011;1899;49.966;7.106;2022-12-15T18:39:18;40.42;;;23.73;;
3767;SDS011;1899;49.966;7.106;2022-12-15T18:41:43;37.95;;;22.17;;
3767;SDS011;1899;49.966;7.106;2022-12-15T18:44:14;36.45;;;22.17;;
3767;SDS011;1899;49.966;7.106;2022-12-15T18:46:43;38.03;;;22.48;;
3767;SDS011;1899;49.966;7.106;2022-12-15T18:49:09;40.40;;;22.73;;
3767;SDS011;1899;49.966;7.106;2022-12-15T18:51:35;39.23;;;21.90;;
3767;SDS011;1899;49.966;7.106;2022-12-15T18:54:00;37.23;;;23.23;;
3767;SDS011;1899;49.966;7.106;2022-12-15T18:56:25;35.60;;;20.87;;
3767;SDS011;1899;49.966;7.106;2022-12-15T18:58:50;35.43;;;21.30;;
3767;SDS011;1899;49.966;7.106;2022-12-15T19:01:16;36.73;;;20.33;;
3767;SDS011;1899;49.966;7.106;2022-12-15T19:03:41;42.63;;;23.87;;
3767;SDS011;1899;49.966;7.106;2022-12-15T19:06:30;38.27;;;21.73;;
3767;SDS011;1899;49.966;7.106;2022-12-15T19:08:59;32.77;;;20.27;;
3767;SDS011;1899;49.966;7.106;2022-12-15T19:11:24;32.35;;;20.13;;
3767;SDS011;1899;49.966;7.106;2022-12-15T19:13:58;32.60;;;18.85;;
3767;SDS011;1899;49.966;7.106;2022-12-15T19:16:24;33.17;;;19.48;;
3767;SDS011;1899;49.966;7.106;2022-12-15T19:18:49;35.10;;;21.43;;
3767;SDS011;1899;49.966;7.106;2022-12-15T19:21:34;37.83;;;24.00;;
3767;SDS011;1899;49.966;7.106;2022-12-15T19:24:09;37.20;;;22.20;;
3767;SDS011;1899;49.966;7.106;2022-12-15T19:26:35;38.30;;;23.45;;
3767;SDS011;1899;49.966;7.106;2022-12-15T19:29:01;37.80;;;23.40;;
3767;SDS011;1899;49.966;7.106;2022-12-15T19:31:33;39.35;;;23.40;;
3767;SDS011;1899;49.966;7.106;2022-12-15T19:33:58;37.27;;;22.23;;
3767;SDS011;1899;49.966;7.106;2022-12-15T19:36:25;35.30;;;21.20;;
3767;SDS011;1899;49.966;7.106;2022-12-15T19:38:51;38.07;;;22.57;;
3767;SDS011;1899;49.966;7.106;2022-12-15T19:41:18;36.95;;;22.23;;
3767;SDS011;1899;49.966;7.106;2022-12-15T19:43:43;35.15;;;21.27;;
3767;SDS011;1899;49.966;7.106;2022-12-15T19:46:12;37.27;;;22.17;;
3767;SDS011;1899;49.966;7.106;2022-12-15T19:48:37;33.60;;;21.27;;
3767;SDS011;1899;49.966;7.106;2022-12-15T19:51:02;30.60;;;19.47;;
3767;SDS011;1899;49.966;7.106;2022-12-15T19:53:28;39.00;;;23.13;;
3767;SDS011;1899;49.966;7.106;2022-12-15T19:55:54;39.70;;;23.10;;
3767;SDS011;1899;49.966;7.106;2022-12-15T20:00:46;37.50;;;21.73;;
3767;SDS011;1899;49.966;7.106;2022-12-15T20:03:11;36.42;;;22.83;;
3767;SDS011;1899;49.966;7.106;2022-12-15T20:05:37;36.67;;;22.17;;
3767;SDS011;1899;49.966;7.106;2022-12-15T20:08:02;37.43;;;22.40;;
3767;SDS011;1899;49.966;7.106;2022-12-15T20:10:27;38.37;;;22.40;;
3767;SDS011;1899;49.966;7.106;2022-12-15T20:12:53;39.93;;;23.80;;
3767;SDS011;1899;49.966;7.106;2022-12-15T20:15:22;38.03;;;23.57;;
3767;SDS011;1899;49.966;7.106;2022-12-15T20:17:48;39.70;;;23.03;;
3767;SDS011;1899;49.966;7.106;2022-12-15T20:20:15;37.83;;;23.23;;
3767;SDS011;1899;49.966;7.106;2022-12-15T20:22:42;39.90;;;23.63;;
3767;SDS011;1899;49.966;7.106;2022-12-15T20:25:12;40.80;;;23.88;;
3767;SDS011;1899;49.966;7.106;2022-12-15T20:27:39;41.80;;;23.27;;
3767;SDS011;1899;49.966;7.106;2022-12-15T20:30:05;34.47;;;21.60;;
3767;SDS011;1899;49.966;7.106;2022-12-15T20:32:31;36.83;;;22.67;;
3767;SDS011;1899;49.966;7.106;2022-12-15T20:34:56;35.13;;;21.50;;
3767;SDS011;1899;49.966;7.106;2022-12-15T20:37:26;34.20;;;21.93;;
3767;SDS011;1899;49.966;7.106;2022-12-15T20:39:51;39.63;;;23.45;;
3767;SDS011;1899;49.966;7.106;2022-12-15T20:42:17;36.30;;;21.50;;
3767;SDS011;1899;49.966;7.106;2022-12-15T20:44:43;34.05;;;20.50;;
3767;SDS011;1899;49.966;7.106;2022-12-15T20:47:21;32.50;;;20.10;;
3767;SDS011;1899;49.966;7.106;2022-12-15T20:49:48;33.90;;;20.20;;
3767;SDS011;1899;49.966;7.106;2022-12-15T20:52:20;34.08;;;19.58;;
3767;SDS011;1899;49.966;7.106;2022-12-15T20:54:46;34.67;;;20.00;;
3767;SDS011;1899;49.966;7.106;2022-12-15T20:57:12;34.65;;;21.30;;
3767;SDS011;1899;49.966;7.106;2022-12-15T20:59:37;42.47;;;23.20;;
